Time,TemperatureF,DewpointF,PressureIn,WindDirection,WindDirectionDegrees,WindSpeedMPH,WindSpeedGustMPH,Humidity,HourlyPrecipIn,Conditions,Clouds,dailyrainin,SoftwareType,DateUTC
2013-11-27 00:00:00,29.1,-2.3,29.23,North,357,4.9,8.3,25,0.00,,---,0.00,VWS V12.07,2013-11-27 05:00:00,
2013-11-27 00:05:00,28.9,-2.5,29.23,NNW,331,0.0,6.3,25,0.00,,---,0.00,VWS V12.07,2013-11-27 05:05:00,
2013-11-27 00:10:00,28.8,-0.2,29.23,NNW,344,5.8,8.3,28,0.00,,---,0.00,VWS V12.07,2013-11-27 05:10:00,
2013-11-27 00:15:00,28.8,-0.2,29.23,NNW,332,5.8,6.3,28,0.00,,---,0.00,VWS V12.07,2013-11-27 05:15:00,
2013-11-27 00:20:00,28.8,-0.2,29.23,North,5,0.0,5.4,28,0.00,,---,0.00,VWS V12.07,2013-11-27 05:20:00,
2013-11-27 00:25:00,28.6,-0.4,29.23,NNW,333,3.6,5.4,28,0.00,,---,0.00,VWS V12.07,2013-11-27 05:25:00,
2013-11-27 00:30:00,28.6,-0.4,29.21,NNW,331,0.0,5.8,28,0.00,,---,0.00,VWS V12.07,2013-11-27 05:30:00,
2013-11-27 00:40:00,28.6,1.1,29.21,NNW,339,6.3,6.3,30,0.00,,---,0.00,VWS V12.07,2013-11-27 05:40:00,
2013-11-27 00:45:00,28.6,1.1,29.21,NNW,341,2.7,6.3,30,0.00,,---,0.00,VWS V12.07,2013-11-27 05:45:00,
2013-11-27 00:50:00,28.6,1.1,29.21,NW,318,0.0,2.7,30,0.00,,---,0.00,VWS V12.07,2013-11-27 05:50:00,
2013-11-27 00:55:00,28.6,1.1,29.21,NW,324,2.2,2.2,30,0.00,,---,0.00,VWS V12.07,2013-11-27 05:55:00,
2013-11-27 01:00:00,28.6,1.8,29.21,NNW,337,4.9,6.3,31,0.00,,---,0.00,VWS V12.07,2013-11-27 06:00:00,
2013-11-27 01:05:00,28.6,1.1,29.21,NNW,341,3.6,6.3,30,0.00,,---,0.00,VWS V12.07,2013-11-27 06:05:00,
2013-11-27 01:10:00,28.6,1.1,29.21,NNW,331,3.1,6.7,30,0.00,,---,0.00,VWS V12.07,2013-11-27 06:10:00,
2013-11-27 01:15:00,28.6,1.1,29.21,NNW,338,0.0,8.7,30,0.00,,---,0.00,VWS V12.07,2013-11-27 06:15:00,
2013-11-27 01:20:00,28.6,-0.4,29.21,NW,323,8.1,9.2,28,0.00,,---,0.00,VWS V12.07,2013-11-27 06:20:00,
2013-11-27 01:25:00,28.6,-0.4,29.21,NW,322,4.0,10.5,28,0.00,,---,0.00,VWS V12.07,2013-11-27 06:25:00,
2013-11-27 01:30:00,28.6,-0.4,29.21,NNW,336,7.6,7.6,28,0.00,,---,0.00,VWS V12.07,2013-11-27 06:30:00,
2013-11-27 01:35:00,28.6,-0.4,29.21,North,353,0.0,8.3,28,0.00,,---,0.00,VWS V12.07,2013-11-27 06:35:00,
2013-11-27 01:40:00,28.6,-0.4,29.21,NW,321,4.9,9.2,28,0.00,,---,0.00,VWS V12.07,2013-11-27 06:40:00,
2013-11-27 01:45:00,28.6,-0.4,29.21,NNW,346,10.1,13.6,28,0.00,,---,0.00,VWS V12.07,2013-11-27 06:45:00,
2013-11-27 01:50:00,28.6,-0.4,29.21,NNW,334,4.5,10.1,28,0.00,,---,0.00,VWS V12.07,2013-11-27 06:50:00,
2013-11-27 01:55:00,28.6,-0.4,29.21,NNW,341,7.6,7.6,28,0.00,,---,0.00,VWS V12.07,2013-11-27 06:55:00,
2013-11-27 02:00:00,28.6,-0.4,29.21,NNW,343,8.3,10.5,28,0.00,,---,0.00,VWS V12.07,2013-11-27 07:00:00,
2013-11-27 02:05:00,28.6,-2.8,29.21,NW,321,4.0,12.3,25,0.00,,---,0.00,VWS V12.07,2013-11-27 07:05:00,
2013-11-27 02:10:00,28.6,-2.8,29.21,ENE,77,5.4,8.3,25,0.00,,---,0.00,VWS V12.07,2013-11-27 07:10:00,
2013-11-27 02:15:00,28.4,-2.1,29.21,NNW,341,8.3,8.3,26,0.00,,---,0.00,VWS V12.07,2013-11-27 07:15:00,
2013-11-27 02:20:00,28.4,-2.1,29.21,NNW,328,8.1,10.5,26,0.00,,---,0.00,VWS V12.07,2013-11-27 07:20:00,
2013-11-27 02:25:00,28.2,-2.2,29.21,North,0,0.0,8.1,26,0.00,,---,0.00,VWS V12.07,2013-11-27 07:25:00,
2013-11-27 02:30:00,28.2,-2.2,29.21,NNW,328,8.1,8.3,26,0.00,,---,0.00,VWS V12.07,2013-11-27 07:30:00,
2013-11-27 02:35:00,28.2,-2.2,29.21,NNW,343,5.4,8.1,26,0.00,,---,0.00,VWS V12.07,2013-11-27 07:35:00,
2013-11-27 02:40:00,27.9,-2.6,29.21,NNW,348,10.5,13.6,26,0.00,,---,0.00,VWS V12.07,2013-11-27 07:40:00,
2013-11-27 02:45:00,27.5,-2.9,29.23,NNW,338,7.6,11.0,26,0.00,,---,0.00,VWS V12.07,2013-11-27 07:45:00,
2013-11-27 02:50:00,27.3,-3.0,29.23,NW,322,8.7,10.5,26,0.00,,---,0.00,VWS V12.07,2013-11-27 07:50:00,
2013-11-27 02:55:00,27.1,-3.2,29.23,North,357,6.3,11.0,26,0.00,,---,0.00,VWS V12.07,2013-11-27 07:55:00,
2013-11-27 03:00:00,27.0,-3.3,29.23,NNW,337,3.1,4.0,26,0.00,,---,0.00,VWS V12.07,2013-11-27 08:00:00,
2013-11-27 03:05:00,26.8,-3.5,29.23,North,353,10.5,11.0,26,0.00,,---,0.00,VWS V12.07,2013-11-27 08:05:00,
2013-11-27 03:10:00,26.6,-3.7,29.23,NW,324,5.8,10.5,26,0.00,,---,0.00,VWS V12.07,2013-11-27 08:10:00,
2013-11-27 03:15:00,26.2,-4.0,29.23,NNW,339,10.1,12.8,26,0.00,,---,0.00,VWS V12.07,2013-11-27 08:15:00,
2013-11-27 03:20:00,26.1,-4.1,29.23,NW,318,5.8,12.8,26,0.00,,---,0.00,VWS V12.07,2013-11-27 08:20:00,
2013-11-27 03:25:00,25.9,-4.3,29.23,NW,326,5.4,5.4,26,0.00,,---,0.00,VWS V12.07,2013-11-27 08:25:00,
2013-11-27 03:30:00,25.5,-4.6,29.23,North,353,8.3,10.5,26,0.00,,---,0.00,VWS V12.07,2013-11-27 08:30:00,
2013-11-27 03:35:00,25.2,-4.9,29.23,North,353,10.1,11.0,26,0.00,,---,0.00,VWS V12.07,2013-11-27 08:35:00,
2013-11-27 03:40:00,25.0,-5.1,29.23,NW,311,5.8,10.1,26,0.00,,---,0.00,VWS V12.07,2013-11-27 08:40:00,
2013-11-27 03:45:00,25.2,-4.9,29.23,NW,317,8.3,11.4,26,0.00,,---,0.00,VWS V12.07,2013-11-27 08:45:00,
2013-11-27 03:50:00,25.2,-4.9,29.23,NW,320,6.3,6.3,26,0.00,,---,0.00,VWS V12.07,2013-11-27 08:50:00,
2013-11-27 03:55:00,25.2,-4.9,29.23,NW,321,8.1,10.5,26,0.00,,---,0.00,VWS V12.07,2013-11-27 08:55:00,
2013-11-27 04:00:00,25.2,-4.9,29.23,NW,323,5.4,10.5,26,0.00,,---,0.00,VWS V12.07,2013-11-27 09:00:00,
2013-11-27 04:05:00,25.0,-5.1,29.23,NNE,24,7.6,10.5,26,0.00,,---,0.00,VWS V12.07,2013-11-27 09:05:00,
2013-11-27 04:10:00,24.8,-4.4,29.23,North,353,10.1,10.1,27,0.00,,---,0.00,VWS V12.07,2013-11-27 09:10:00,
2013-11-27 04:15:00,24.4,-4.7,29.23,WNW,302,11.0,13.6,27,0.00,,---,0.00,VWS V12.07,2013-11-27 09:15:00,
2013-11-27 04:20:00,24.4,-4.7,29.23,North,353,5.8,11.0,27,0.00,,---,0.00,VWS V12.07,2013-11-27 09:20:00,
2013-11-27 04:25:00,24.4,-4.7,29.23,NNW,332,8.1,11.0,27,0.00,,---,0.00,VWS V12.07,2013-11-27 09:25:00,
2013-11-27 04:30:00,24.3,-4.9,29.23,NNW,327,5.8,13.6,27,0.00,,---,0.00,VWS V12.07,2013-11-27 09:30:00,
2013-11-27 04:35:00,24.3,-4.9,29.23,NW,312,7.2,7.2,27,0.00,,---,0.00,VWS V12.07,2013-11-27 09:35:00,
2013-11-27 04:40:00,24.3,-4.9,29.23,NW,325,5.4,8.7,27,0.00,,---,0.00,VWS V12.07,2013-11-27 09:40:00,
2013-11-27 04:45:00,24.1,-5.1,29.23,WNW,298,9.6,11.0,27,0.00,,---,0.00,VWS V12.07,2013-11-27 09:45:00,
2013-11-27 04:50:00,23.9,-5.2,29.23,NNW,337,8.1,10.5,27,0.00,,---,0.00,VWS V12.07,2013-11-27 09:50:00,
2013-11-27 04:55:00,23.7,-5.4,29.23,NNW,332,8.3,12.8,27,0.00,,---,0.00,VWS V12.07,2013-11-27 09:55:00,
2013-11-27 05:00:00,23.5,-5.5,29.23,NNW,330,7.6,10.5,27,0.00,,---,0.00,VWS V12.07,2013-11-27 10:00:00,
2013-11-27 05:05:00,23.5,-5.5,29.23,NW,308,6.7,8.1,27,0.00,,---,0.00,VWS V12.07,2013-11-27 10:05:00,
2013-11-27 05:10:00,23.5,-5.5,29.23,WNW,296,6.3,8.7,27,0.00,,---,0.00,VWS V12.07,2013-11-27 10:10:00,
2013-11-27 05:15:00,23.5,-5.5,29.26,NW,310,4.0,10.5,27,0.00,,---,0.00,VWS V12.07,2013-11-27 10:15:00,
2013-11-27 05:20:00,23.4,-5.7,29.26,NNW,332,7.6,8.1,27,0.00,,---,0.00,VWS V12.07,2013-11-27 10:20:00,
2013-11-27 05:25:00,23.4,-5.7,29.26,NNW,343,8.3,10.1,27,0.00,,---,0.00,VWS V12.07,2013-11-27 10:25:00,
2013-11-27 05:30:00,23.2,-5.8,29.26,WNW,298,6.3,12.8,27,0.00,,---,0.00,VWS V12.07,2013-11-27 10:30:00,
2013-11-27 05:35:00,23.0,-6.0,29.26,NNW,335,4.0,8.7,27,0.00,,---,0.00,VWS V12.07,2013-11-27 10:35:00,
2013-11-27 05:40:00,23.0,-6.0,29.26,NW,324,8.7,10.1,27,0.00,,---,0.00,VWS V12.07,2013-11-27 10:40:00,
2013-11-27 05:50:00,22.8,-6.1,29.26,WNW,301,7.6,8.7,27,0.00,,---,0.00,VWS V12.07,2013-11-27 10:50:00,
2013-11-27 05:55:00,22.8,-6.1,29.26,NNW,335,5.4,11.9,27,0.00,,---,0.00,VWS V12.07,2013-11-27 10:55:00,
2013-11-27 06:00:00,22.6,-6.3,29.26,NNW,344,5.8,8.7,27,0.00,,---,0.00,VWS V12.07,2013-11-27 11:00:00,
2013-11-27 06:05:00,22.5,-8.0,29.26,NW,310,7.6,10.5,25,0.00,,---,0.00,VWS V12.07,2013-11-27 11:05:00,
2013-11-27 06:10:00,22.1,-8.3,29.26,NW,324,7.6,7.6,25,0.00,,---,0.00,VWS V12.07,2013-11-27 11:10:00,
2013-11-27 06:15:00,21.9,-8.5,29.26,NW,308,7.6,10.5,25,0.00,,---,0.00,VWS V12.07,2013-11-27 11:15:00,
2013-11-27 06:20:00,21.9,-8.5,29.26,NNW,331,5.8,14.1,25,0.00,,---,0.00,VWS V12.07,2013-11-27 11:20:00,
2013-11-27 06:25:00,21.9,-8.5,29.26,NNW,339,6.3,12.3,25,0.00,,---,0.00,VWS V12.07,2013-11-27 11:25:00,
2013-11-27 06:30:00,21.9,-8.5,29.26,NNW,330,8.3,8.7,25,0.00,,---,0.00,VWS V12.07,2013-11-27 11:30:00,
2013-11-27 06:35:00,21.9,-8.5,29.26,NNW,333,6.3,12.3,25,0.00,,---,0.00,VWS V12.07,2013-11-27 11:35:00,
2013-11-27 06:40:00,21.7,-8.6,29.26,NW,321,5.8,12.3,25,0.00,,---,0.00,VWS V12.07,2013-11-27 11:40:00,
2013-11-27 06:45:00,21.6,-8.8,29.26,NW,312,8.1,11.0,25,0.00,,---,0.00,VWS V12.07,2013-11-27 11:45:00,
2013-11-27 06:50:00,21.2,-9.1,29.26,NW,313,8.7,12.3,25,0.00,,---,0.00,VWS V12.07,2013-11-27 11:50:00,
2013-11-27 06:55:00,21.0,-9.3,29.26,NW,311,8.7,8.7,25,0.00,,---,0.00,VWS V12.07,2013-11-27 11:55:00,
2013-11-27 07:00:00,20.8,-9.4,29.26,WNW,295,8.3,11.0,25,0.00,,---,0.00,VWS V12.07,2013-11-27 12:00:00,
2013-11-27 07:05:00,20.5,-9.7,29.26,WNW,303,13.2,13.2,25,0.00,,---,0.00,VWS V12.07,2013-11-27 12:05:00,
2013-11-27 07:10:00,20.3,-9.9,29.26,WNW,292,8.1,13.2,25,0.00,,---,0.00,VWS V12.07,2013-11-27 12:10:00,
2013-11-27 07:15:00,20.3,-9.9,29.29,NW,325,8.3,10.5,25,0.00,,---,0.00,VWS V12.07,2013-11-27 12:15:00,
2013-11-27 07:20:00,20.1,-10.1,29.29,NW,319,9.6,11.0,25,0.00,,---,0.00,VWS V12.07,2013-11-27 12:20:00,
2013-11-27 07:25:00,20.1,-10.1,29.29,NW,319,5.8,9.6,25,0.00,,---,0.00,VWS V12.07,2013-11-27 12:25:00,
2013-11-27 07:30:00,19.9,-10.2,29.29,NNW,330,12.8,12.8,25,0.00,,---,0.00,VWS V12.07,2013-11-27 12:30:00,
2013-11-27 07:35:00,19.9,-10.2,29.29,NNW,332,5.8,13.2,25,0.00,,---,0.00,VWS V12.07,2013-11-27 12:35:00,
2013-11-27 07:40:00,19.9,-10.2,29.29,NW,316,5.4,5.8,25,0.00,,---,0.00,VWS V12.07,2013-11-27 12:40:00,
2013-11-27 07:45:00,19.8,-10.4,29.29,West,267,8.3,10.1,25,0.00,,---,0.00,VWS V12.07,2013-11-27 12:45:00,
2013-11-27 07:50:00,19.8,-10.4,29.29,NNW,327,8.3,11.0,25,0.00,,---,0.00,VWS V12.07,2013-11-27 12:50:00,
2013-11-27 07:55:00,19.6,-10.5,29.29,WNW,297,8.7,11.0,25,0.00,,---,0.00,VWS V12.07,2013-11-27 12:55:00,
2013-11-27 08:00:00,19.6,-10.5,29.29,WNW,299,9.6,10.1,25,0.00,,---,0.00,VWS V12.07,2013-11-27 13:00:00,
2013-11-27 08:05:00,19.6,-10.5,29.29,NNW,331,7.6,11.0,25,0.00,,---,0.00,VWS V12.07,2013-11-27 13:05:00,
2013-11-27 08:10:00,19.6,-10.5,29.29,WNW,286,7.6,7.6,25,0.00,,---,0.00,VWS V12.07,2013-11-27 13:10:00,
2013-11-27 08:15:00,19.8,-10.4,29.29,NW,322,3.6,8.3,25,0.00,,---,0.00,VWS V12.07,2013-11-27 13:15:00,
2013-11-27 08:20:00,19.8,-10.4,29.29,NW,316,7.6,11.0,25,0.00,,---,0.00,VWS V12.07,2013-11-27 13:20:00,
2013-11-27 08:25:00,19.8,-10.4,29.29,WNW,299,5.8,10.5,25,0.00,,---,0.00,VWS V12.07,2013-11-27 13:25:00,
2013-11-27 08:30:00,19.8,-10.4,29.29,NNW,328,5.8,5.8,25,0.00,,---,0.00,VWS V12.07,2013-11-27 13:30:00,
2013-11-27 08:35:00,19.8,-10.4,29.29,NW,307,5.8,9.6,25,0.00,,---,0.00,VWS V12.07,2013-11-27 13:35:00,
2013-11-27 08:40:00,19.9,-10.2,29.29,WNW,296,3.6,6.3,25,0.00,,---,0.00,VWS V12.07,2013-11-27 13:40:00,
2013-11-27 08:45:00,20.1,-10.1,29.29,NNW,327,8.1,12.8,25,0.00,,---,0.00,VWS V12.07,2013-11-27 13:45:00,
2013-11-27 08:50:00,19.9,-10.2,29.29,WNW,299,12.3,12.3,25,0.00,,---,0.00,VWS V12.07,2013-11-27 13:50:00,
2013-11-27 08:55:00,20.1,-10.1,29.29,WNW,301,6.7,12.3,25,0.00,,---,0.00,VWS V12.07,2013-11-27 13:55:00,
2013-11-27 09:00:00,20.3,-9.9,29.32,NW,306,6.3,8.3,25,0.00,,---,0.00,VWS V12.07,2013-11-27 14:00:00,
2013-11-27 09:05:00,20.3,-9.9,29.32,NW,312,6.3,9.2,25,0.00,,---,0.00,VWS V12.07,2013-11-27 14:05:00,
2013-11-27 09:10:00,20.3,-9.9,29.32,NNW,329,5.8,8.7,25,0.00,,---,0.00,VWS V12.07,2013-11-27 14:10:00,
2013-11-27 09:15:00,20.5,-9.7,29.32,WNW,298,8.3,9.6,25,0.00,,---,0.00,VWS V12.07,2013-11-27 14:15:00,
2013-11-27 09:20:00,20.5,-9.7,29.32,WNW,296,12.3,12.3,25,0.00,,---,0.00,VWS V12.07,2013-11-27 14:20:00,
2013-11-27 09:25:00,20.3,-9.9,29.32,WNW,301,6.3,12.3,25,0.00,,---,0.00,VWS V12.07,2013-11-27 14:25:00,
2013-11-27 09:30:00,20.5,-9.7,29.32,NW,325,8.1,8.1,25,0.00,,---,0.00,VWS V12.07,2013-11-27 14:30:00,
2013-11-27 09:35:00,20.7,-9.6,29.32,NW,307,6.3,10.5,25,0.00,,---,0.00,VWS V12.07,2013-11-27 14:35:00,
2013-11-27 09:40:00,20.7,-9.6,29.32,North,0,9.2,11.9,25,0.00,,---,0.00,VWS V12.07,2013-11-27 14:40:00,
2013-11-27 09:45:00,20.8,-9.4,29.32,NW,320,8.7,10.1,25,0.00,,---,0.00,VWS V12.07,2013-11-27 14:45:00,
2013-11-27 09:50:00,20.8,-9.4,29.32,WNW,303,5.4,12.3,25,0.00,,---,0.00,VWS V12.07,2013-11-27 14:50:00,
2013-11-27 09:55:00,21.0,-9.3,29.32,NNW,328,9.6,11.0,25,0.00,,---,0.00,VWS V12.07,2013-11-27 14:55:00,
2013-11-27 10:00:00,21.4,-9.0,29.32,NW,308,6.3,6.3,25,0.00,,---,0.00,VWS V12.07,2013-11-27 15:00:00,
2013-11-27 10:05:00,21.4,-9.0,29.32,NW,312,6.3,10.1,25,0.00,,---,0.00,VWS V12.07,2013-11-27 15:05:00,
2013-11-27 10:10:00,21.7,-8.6,29.32,NW,320,7.6,7.6,25,0.00,,---,0.00,VWS V12.07,2013-11-27 15:10:00,
2013-11-27 10:15:00,21.9,-8.5,29.32,NW,322,4.9,10.1,25,0.00,,---,0.00,VWS V12.07,2013-11-27 15:15:00,
2013-11-27 10:20:00,21.7,-8.6,29.32,NNW,335,6.3,6.3,25,0.00,,---,0.00,VWS V12.07,2013-11-27 15:20:00,
2013-11-27 10:25:00,21.6,-8.8,29.32,NNW,330,9.2,11.0,25,0.00,,---,0.00,VWS V12.07,2013-11-27 15:25:00,
2013-11-27 10:30:00,21.7,-8.6,29.32,NW,304,10.1,11.0,25,0.00,,---,0.00,VWS V12.07,2013-11-27 15:30:00,
2013-11-27 10:35:00,21.7,-8.6,29.32,North,7,8.7,8.7,25,0.00,,---,0.00,VWS V12.07,2013-11-27 15:35:00,
2013-11-27 10:40:00,21.9,-8.5,29.32,NNW,328,7.6,8.7,25,0.00,,---,0.00,VWS V12.07,2013-11-27 15:40:00,
2013-11-27 10:45:00,21.9,-6.9,29.32,NW,306,5.4,11.0,27,0.00,,---,0.00,VWS V12.07,2013-11-27 15:45:00,
2013-11-27 10:50:00,22.1,-6.8,29.32,NW,309,7.6,7.6,27,0.00,,---,0.00,VWS V12.07,2013-11-27 15:50:00,
2013-11-27 10:55:00,22.5,-6.5,29.32,NW,312,6.3,8.1,27,0.00,,---,0.00,VWS V12.07,2013-11-27 15:55:00,
2013-11-27 11:00:00,22.8,-6.1,29.32,NW,323,5.8,10.5,27,0.00,,---,0.00,VWS V12.07,2013-11-27 16:00:00,
2013-11-27 11:05:00,22.6,-7.9,29.32,NW,319,8.3,10.1,25,0.00,,---,0.00,VWS V12.07,2013-11-27 16:05:00,
2013-11-27 11:10:00,22.6,-7.9,29.32,NNW,339,8.1,11.0,25,0.00,,---,0.00,VWS V12.07,2013-11-27 16:10:00,
2013-11-27 11:15:00,22.5,-8.0,29.32,NW,326,8.1,13.2,25,0.00,,---,0.00,VWS V12.07,2013-11-27 16:15:00,
2013-11-27 11:20:00,22.5,-8.0,29.32,NW,318,3.6,10.1,25,0.00,,---,0.00,VWS V12.07,2013-11-27 16:20:00,
2013-11-27 11:25:00,23.0,-6.0,29.32,NW,322,6.3,6.3,27,0.00,,---,0.00,VWS V12.07,2013-11-27 16:25:00,
2013-11-27 11:30:00,22.8,-7.7,29.32,NNW,343,8.7,10.1,25,0.00,,---,0.00,VWS V12.07,2013-11-27 16:30:00,
2013-11-27 11:35:00,22.8,-6.1,29.32,NNW,330,9.2,9.2,27,0.00,,---,0.00,VWS V12.07,2013-11-27 16:35:00,
2013-11-27 11:40:00,22.8,-6.1,29.32,West,274,8.1,8.1,27,0.00,,---,0.00,VWS V12.07,2013-11-27 16:40:00,
2013-11-27 11:45:00,22.8,-6.1,29.32,NNW,331,5.4,11.9,27,0.00,,---,0.00,VWS V12.07,2013-11-27 16:45:00,
2013-11-27 11:50:00,22.8,-6.1,29.32,NW,314,5.8,8.1,27,0.00,,---,0.00,VWS V12.07,2013-11-27 16:50:00,
2013-11-27 11:55:00,22.8,-6.1,29.32,NW,319,5.4,10.1,27,0.00,,---,0.00,VWS V12.07,2013-11-27 16:55:00,
2013-11-27 12:00:00,22.8,-6.1,29.32,NW,310,8.7,10.1,27,0.00,,---,0.00,VWS V12.07,2013-11-27 17:00:00,
2013-11-27 12:05:00,22.5,-6.5,29.32,NW,304,10.1,12.3,27,0.00,,---,0.00,VWS V12.07,2013-11-27 17:05:00,
2013-11-27 12:10:00,22.5,-6.5,29.32,NW,325,5.8,10.5,27,0.00,,---,0.00,VWS V12.07,2013-11-27 17:10:00,
2013-11-27 12:15:00,22.8,-6.1,29.32,North,353,8.3,12.3,27,0.00,,---,0.00,VWS V12.07,2013-11-27 17:15:00,
2013-11-27 12:20:00,23.0,-6.0,29.32,NW,326,8.3,8.3,27,0.00,,---,0.00,VWS V12.07,2013-11-27 17:20:00,
2013-11-27 12:25:00,23.4,-5.7,29.32,NW,323,8.7,10.5,27,0.00,,---,0.00,VWS V12.07,2013-11-27 17:25:00,
2013-11-27 12:30:00,23.9,-5.2,29.32,NW,306,7.6,11.9,27,0.00,,---,0.00,VWS V12.07,2013-11-27 17:30:00,
2013-11-27 12:35:00,23.7,-5.4,29.32,NW,309,8.1,8.1,27,0.00,,---,0.00,VWS V12.07,2013-11-27 17:35:00,
2013-11-27 12:40:00,24.1,-5.1,29.32,WNW,298,8.3,12.8,27,0.00,,---,0.00,VWS V12.07,2013-11-27 17:40:00,
2013-11-27 12:45:00,24.1,-5.1,29.32,WNW,303,8.7,8.7,27,0.00,,---,0.00,VWS V12.07,2013-11-27 17:45:00,
2013-11-27 12:50:00,24.4,-7.2,29.32,NW,321,12.3,12.3,24,0.00,,---,0.00,VWS V12.07,2013-11-27 17:50:00,
2013-11-27 12:55:00,24.6,-7.0,29.32,NW,321,11.0,12.3,24,0.00,,---,0.00,VWS V12.07,2013-11-27 17:55:00,
2013-11-27 13:00:00,25.0,-6.7,29.32,NW,317,9.2,13.2,24,0.00,,---,0.00,VWS V12.07,2013-11-27 18:00:00,
2013-11-27 13:05:00,25.9,-5.9,29.32,WNW,290,6.3,13.2,24,0.00,,---,0.00,VWS V12.07,2013-11-27 18:05:00,
2013-11-27 13:10:00,25.7,-6.1,29.32,NNW,341,5.8,11.9,24,0.00,,---,0.00,VWS V12.07,2013-11-27 18:10:00,
2013-11-27 13:15:00,25.5,-6.2,29.32,NNW,334,11.0,11.0,24,0.00,,---,0.00,VWS V12.07,2013-11-27 18:15:00,
2013-11-27 13:20:00,29.1,-4.1,29.32,NW,311,6.3,12.8,23,0.00,,---,0.00,VWS V12.07,2013-11-27 18:20:00,
2013-11-27 13:25:00,32.2,-1.4,29.32,WNW,284,8.7,14.5,23,0.00,,---,0.00,VWS V12.07,2013-11-27 18:25:00,
2013-11-27 13:30:00,32.7,-1.0,29.32,WNW,291,6.3,13.2,23,0.00,,---,0.00,VWS V12.07,2013-11-27 18:30:00,
2013-11-27 13:35:00,32.0,-1.6,29.32,NNW,346,10.1,10.1,23,0.00,,---,0.00,VWS V12.07,2013-11-27 18:35:00,
2013-11-27 13:40:00,29.8,-3.4,29.32,WNW,303,6.3,13.6,23,0.00,,---,0.00,VWS V12.07,2013-11-27 18:40:00,
2013-11-27 13:45:00,30.9,-2.5,29.32,NW,305,7.2,12.3,23,0.00,,---,0.00,VWS V12.07,2013-11-27 18:45:00,
2013-11-27 13:50:00,28.8,-4.3,29.32,NNW,335,6.3,11.0,23,0.00,,---,0.00,VWS V12.07,2013-11-27 18:50:00,
2013-11-27 13:55:00,27.3,-5.6,29.32,WNW,286,8.7,8.7,23,0.00,,---,0.00,VWS V12.07,2013-11-27 18:55:00,
2013-11-27 14:00:00,26.8,-6.0,29.32,NNW,339,5.8,12.3,23,0.00,,---,0.00,VWS V12.07,2013-11-27 19:00:00,
2013-11-27 14:05:00,25.9,-5.9,29.32,WNW,298,8.7,13.2,24,0.00,,---,0.00,VWS V12.07,2013-11-27 19:05:00,
2013-11-27 14:10:00,26.4,-5.5,29.32,WNW,285,13.2,13.2,24,0.00,,---,0.00,VWS V12.07,2013-11-27 19:10:00,
2013-11-27 14:15:00,27.5,-5.4,29.32,North,0,8.1,13.2,23,0.00,,---,0.00,VWS V12.07,2013-11-27 19:15:00,
2013-11-27 14:20:00,27.1,-5.7,29.32,NNW,333,10.1,11.0,23,0.00,,---,0.00,VWS V12.07,2013-11-27 19:20:00,
2013-11-27 14:25:00,26.6,-5.3,29.32,NNW,340,8.3,15.4,24,0.00,,---,0.00,VWS V12.07,2013-11-27 19:25:00,
2013-11-27 14:30:00,26.1,-5.8,29.32,NW,304,8.1,10.5,24,0.00,,---,0.00,VWS V12.07,2013-11-27 19:30:00,
2013-11-27 14:35:00,25.7,-6.1,29.32,NW,323,5.8,12.8,24,0.00,,---,0.00,VWS V12.07,2013-11-27 19:35:00,
2013-11-27 14:40:00,27.5,-5.4,29.32,NNW,345,9.2,10.5,23,0.00,,---,0.00,VWS V12.07,2013-11-27 19:40:00,
2013-11-27 14:45:00,28.6,-4.5,29.35,NW,307,10.1,13.2,23,0.00,,---,0.00,VWS V12.07,2013-11-27 19:45:00,
2013-11-27 14:50:00,29.5,-3.7,29.35,NNW,341,8.3,10.5,23,0.00,,---,0.00,VWS V12.07,2013-11-27 19:50:00,
2013-11-27 14:55:00,28.6,-4.5,29.35,NNW,339,6.7,6.7,23,0.00,,---,0.00,VWS V12.07,2013-11-27 19:55:00,
2013-11-27 15:00:00,27.1,-5.7,29.35,NW,325,4.0,13.2,23,0.00,,---,0.00,VWS V12.07,2013-11-27 20:00:00,
2013-11-27 15:05:00,27.3,-5.6,29.35,WNW,293,6.3,10.1,23,0.00,,---,0.00,VWS V12.07,2013-11-27 20:05:00,
2013-11-27 15:10:00,27.1,-5.7,29.35,NNW,341,8.1,12.3,23,0.00,,---,0.00,VWS V12.07,2013-11-27 20:10:00,
2013-11-27 15:15:00,30.4,-3.0,29.35,NNW,332,11.0,12.8,23,0.00,,---,0.00,VWS V12.07,2013-11-27 20:15:00,
2013-11-27 15:20:00,33.3,-0.5,29.35,NW,313,7.6,12.8,23,0.00,,---,0.00,VWS V12.07,2013-11-27 20:20:00,
2013-11-27 15:25:00,33.4,-0.4,29.35,NW,305,7.6,15.0,23,0.00,,---,0.00,VWS V12.07,2013-11-27 20:25:00,
2013-11-27 15:30:00,34.2,-0.7,29.35,NNW,338,10.1,13.2,22,0.00,,---,0.00,VWS V12.07,2013-11-27 20:30:00,
2013-11-27 15:35:00,32.0,-1.6,29.35,WNW,282,8.3,12.8,23,0.00,,---,0.00,VWS V12.07,2013-11-27 20:35:00,
2013-11-27 15:40:00,31.8,-1.8,29.35,NW,316,8.1,11.9,23,0.00,,---,0.00,VWS V12.07,2013-11-27 20:40:00,
2013-11-27 15:45:00,32.4,-1.3,29.35,West,281,12.8,12.8,23,0.00,,---,0.00,VWS V12.07,2013-11-27 20:45:00,
2013-11-27 15:50:00,30.2,-3.1,29.35,NW,315,10.1,13.6,23,0.00,,---,0.00,VWS V12.07,2013-11-27 20:50:00,
2013-11-27 15:55:00,30.4,-3.0,29.35,NNW,327,8.3,15.0,23,0.00,,---,0.00,VWS V12.07,2013-11-27 20:55:00,
2013-11-27 16:00:00,29.7,-3.6,29.35,WNW,286,13.2,13.2,23,0.00,,---,0.00,VWS V12.07,2013-11-27 21:00:00,
2013-11-27 16:05:00,29.5,-3.7,29.35,WNW,291,8.3,13.2,23,0.00,,---,0.00,VWS V12.07,2013-11-27 21:05:00,
2013-11-27 16:10:00,31.6,-1.9,29.35,NW,318,8.7,15.4,23,0.00,,---,0.00,VWS V12.07,2013-11-27 21:10:00,
2013-11-27 16:15:00,31.8,-1.8,29.35,West,276,7.6,10.1,23,0.00,,---,0.00,VWS V12.07,2013-11-27 21:15:00,
2013-11-27 16:20:00,32.2,-1.4,29.35,NW,313,6.3,10.5,23,0.00,,---,0.00,VWS V12.07,2013-11-27 21:20:00,
2013-11-27 16:25:00,31.5,-2.0,29.35,NW,326,6.7,13.6,23,0.00,,---,0.00,VWS V12.07,2013-11-27 21:25:00,
2013-11-27 16:30:00,28.8,-4.3,29.38,NW,320,11.0,12.8,23,0.00,,---,0.00,VWS V12.07,2013-11-27 21:30:00,
2013-11-27 16:35:00,29.3,-3.9,29.38,NW,319,6.3,11.0,23,0.00,,---,0.00,VWS V12.07,2013-11-27 21:35:00,
2013-11-27 16:45:00,29.8,-3.4,29.38,WNW,294,6.7,13.2,23,0.00,,---,0.00,VWS V12.07,2013-11-27 21:45:00,
2013-11-27 16:55:00,27.3,-5.6,29.38,WNW,287,8.1,11.0,23,0.00,,---,0.00,VWS V12.07,2013-11-27 21:55:00,
2013-11-27 17:00:00,27.5,-5.4,29.38,WNW,298,6.3,9.2,23,0.00,,---,0.00,VWS V12.07,2013-11-27 22:00:00,
2013-11-27 17:05:00,26.8,-6.0,29.38,West,272,8.3,8.3,23,0.00,,---,0.00,VWS V12.07,2013-11-27 22:05:00,
2013-11-27 17:10:00,26.2,-5.6,29.38,NNW,339,8.7,11.9,24,0.00,,---,0.00,VWS V12.07,2013-11-27 22:10:00,
2013-11-27 17:15:00,25.3,-6.4,29.38,West,281,8.3,8.3,24,0.00,,---,0.00,VWS V12.07,2013-11-27 22:15:00,
2013-11-27 17:20:00,25.2,-6.6,29.38,WNW,293,10.1,12.3,24,0.00,,---,0.00,VWS V12.07,2013-11-27 22:20:00,
2013-11-27 17:25:00,24.8,-6.9,29.38,WNW,296,7.2,8.7,24,0.00,,---,0.00,VWS V12.07,2013-11-27 22:25:00,
2013-11-27 17:30:00,24.4,-7.2,29.38,NW,305,4.0,7.2,24,0.00,,---,0.00,VWS V12.07,2013-11-27 22:30:00,
2013-11-27 17:35:00,24.3,-7.3,29.38,WNW,292,5.4,7.6,24,0.00,,---,0.00,VWS V12.07,2013-11-27 22:35:00,
2013-11-27 17:40:00,24.3,-7.3,29.38,WNW,286,5.8,8.7,24,0.00,,---,0.00,VWS V12.07,2013-11-27 22:40:00,
2013-11-27 17:45:00,24.1,-7.5,29.38,WNW,299,6.3,8.7,24,0.00,,---,0.00,VWS V12.07,2013-11-27 22:45:00,
2013-11-27 17:50:00,24.4,-7.2,29.38,WNW,283,6.3,11.0,24,0.00,,---,0.00,VWS V12.07,2013-11-27 22:50:00,
2013-11-27 17:55:00,24.3,-7.3,29.38,WNW,283,6.7,8.3,24,0.00,,---,0.00,VWS V12.07,2013-11-27 22:55:00,
2013-11-27 18:00:00,24.1,-7.5,29.41,WNW,298,6.3,8.3,24,0.00,,---,0.00,VWS V12.07,2013-11-27 23:00:00,
2013-11-27 18:05:00,24.3,-7.3,29.41,WNW,282,5.4,7.6,24,0.00,,---,0.00,VWS V12.07,2013-11-27 23:05:00,
2013-11-27 18:10:00,24.3,-7.3,29.41,WNW,296,5.8,5.8,24,0.00,,---,0.00,VWS V12.07,2013-11-27 23:10:00,
2013-11-27 18:20:00,24.1,-7.5,29.41,WNW,289,5.4,7.6,24,0.00,,---,0.00,VWS V12.07,2013-11-27 23:20:00,
2013-11-27 18:25:00,24.1,-7.5,29.41,WNW,291,4.9,8.3,24,0.00,,---,0.00,VWS V12.07,2013-11-27 23:25:00,
2013-11-27 18:30:00,24.3,-7.3,29.41,West,273,6.3,8.3,24,0.00,,---,0.00,VWS V12.07,2013-11-27 23:30:00,
2013-11-27 18:35:00,24.3,-7.3,29.41,West,261,6.3,9.2,24,0.00,,---,0.00,VWS V12.07,2013-11-27 23:35:00,
2013-11-27 18:40:00,24.3,-7.3,29.41,WNW,293,3.6,8.1,24,0.00,,---,0.00,VWS V12.07,2013-11-27 23:40:00,
2013-11-27 18:45:00,24.3,-7.3,29.41,WNW,297,5.8,8.7,24,0.00,,---,0.00,VWS V12.07,2013-11-27 23:45:00,
2013-11-27 18:50:00,24.3,-7.3,29.41,WNW,292,12.8,12.8,24,0.00,,---,0.00,VWS V12.07,2013-11-27 23:50:00,
2013-11-27 18:55:00,24.3,-7.3,29.41,WNW,283,6.3,12.8,24,0.00,,---,0.00,VWS V12.07,2013-11-27 23:55:00,
2013-11-27 19:00:00,24.1,-7.5,29.41,WNW,297,8.3,11.0,24,0.00,,---,0.00,VWS V12.07,2013-11-28 00:00:00,
2013-11-27 19:05:00,23.9,-7.6,29.41,WNW,298,5.8,11.0,24,0.00,,---,0.00,VWS V12.07,2013-11-28 00:05:00,
2013-11-27 19:10:00,23.7,-7.8,29.41,NW,310,10.1,11.9,24,0.00,,---,0.00,VWS V12.07,2013-11-28 00:10:00,
2013-11-27 19:15:00,23.5,-7.9,29.41,West,263,8.1,8.1,24,0.00,,---,0.00,VWS V12.07,2013-11-28 00:15:00,
2013-11-27 19:20:00,23.2,-8.2,29.41,WNW,289,7.6,8.7,24,0.00,,---,0.00,VWS V12.07,2013-11-28 00:20:00,
2013-11-27 19:25:00,22.8,-7.7,29.41,West,272,5.8,8.7,25,0.00,,---,0.00,VWS V12.07,2013-11-28 00:25:00,
2013-11-27 19:30:00,22.8,-7.7,29.44,NW,304,8.7,9.6,25,0.00,,---,0.00,VWS V12.07,2013-11-28 00:30:00,
2013-11-27 19:35:00,22.6,-7.9,29.44,NW,325,6.3,11.0,25,0.00,,---,0.00,VWS V12.07,2013-11-28 00:35:00,
2013-11-27 19:40:00,22.5,-8.0,29.44,NW,319,6.3,8.1,25,0.00,,---,0.00,VWS V12.07,2013-11-28 00:40:00,
2013-11-27 19:45:00,22.5,-8.0,29.44,NW,310,8.1,8.3,25,0.00,,---,0.00,VWS V12.07,2013-11-28 00:45:00,
2013-11-27 19:50:00,22.3,-8.2,29.44,WNW,284,5.8,8.7,25,0.00,,---,0.00,VWS V12.07,2013-11-28 00:50:00,
2013-11-27 19:55:00,22.1,-8.3,29.44,NW,307,8.1,10.5,25,0.00,,---,0.00,VWS V12.07,2013-11-28 00:55:00,
2013-11-27 20:00:00,21.9,-8.5,29.44,WNW,291,8.1,8.1,25,0.00,,---,0.00,VWS V12.07,2013-11-28 01:00:00,
2013-11-27 20:05:00,21.7,-8.6,29.44,NNW,333,5.8,8.3,25,0.00,,---,0.00,VWS V12.07,2013-11-28 01:05:00,
2013-11-27 20:10:00,21.6,-8.8,29.44,WNW,286,6.3,8.3,25,0.00,,---,0.00,VWS V12.07,2013-11-28 01:10:00,
2013-11-27 20:15:00,21.6,-8.8,29.44,WNW,289,7.6,10.1,25,0.00,,---,0.00,VWS V12.07,2013-11-28 01:15:00,
2013-11-27 20:20:00,21.6,-8.8,29.44,WNW,292,5.4,8.7,25,0.00,,---,0.00,VWS V12.07,2013-11-28 01:20:00,
2013-11-27 20:25:00,21.6,-8.8,29.44,WNW,300,7.6,8.7,25,0.00,,---,0.00,VWS V12.07,2013-11-28 01:25:00,
2013-11-27 20:30:00,21.6,-8.8,29.44,WNW,291,5.4,8.3,25,0.00,,---,0.00,VWS V12.07,2013-11-28 01:30:00,
2013-11-27 20:35:00,21.4,-9.0,29.44,WNW,289,5.8,6.3,25,0.00,,---,0.00,VWS V12.07,2013-11-28 01:35:00,
2013-11-27 20:40:00,21.0,-9.3,29.44,WNW,295,7.2,7.2,25,0.00,,---,0.00,VWS V12.07,2013-11-28 01:40:00,
2013-11-27 20:45:00,20.8,-9.4,29.44,NW,304,6.3,7.6,25,0.00,,---,0.00,VWS V12.07,2013-11-28 01:45:00,
2013-11-27 20:50:00,20.7,-9.6,29.44,WNW,284,4.9,6.7,25,0.00,,---,0.00,VWS V12.07,2013-11-28 01:50:00,
2013-11-27 20:55:00,20.7,-9.6,29.44,WNW,292,5.8,6.3,25,0.00,,---,0.00,VWS V12.07,2013-11-28 01:55:00,
2013-11-27 21:00:00,20.3,-9.9,29.44,West,279,6.3,6.3,25,0.00,,---,0.00,VWS V12.07,2013-11-28 02:00:00,
2013-11-27 21:05:00,20.3,-9.9,29.44,WNW,298,5.4,6.3,25,0.00,,---,0.00,VWS V12.07,2013-11-28 02:05:00,
2013-11-27 21:10:00,20.1,-10.1,29.44,WNW,294,3.6,6.3,25,0.00,,---,0.00,VWS V12.07,2013-11-28 02:10:00,
2013-11-27 21:15:00,20.1,-10.1,29.44,West,279,3.6,6.3,25,0.00,,---,0.00,VWS V12.07,2013-11-28 02:15:00,
2013-11-27 21:20:00,19.9,-10.2,29.44,WNW,287,4.0,6.3,25,0.00,,---,0.00,VWS V12.07,2013-11-28 02:20:00,
2013-11-27 21:25:00,19.8,-10.4,29.44,WNW,291,3.1,6.3,25,0.00,,---,0.00,VWS V12.07,2013-11-28 02:25:00,
2013-11-27 21:30:00,19.8,-10.4,29.44,West,279,4.9,5.8,25,0.00,,---,0.00,VWS V12.07,2013-11-28 02:30:00,
2013-11-27 21:35:00,19.8,-10.4,29.44,West,271,5.8,6.3,25,0.00,,---,0.00,VWS V12.07,2013-11-28 02:35:00,
2013-11-27 21:40:00,19.8,-10.4,29.44,WNW,283,5.4,7.2,25,0.00,,---,0.00,VWS V12.07,2013-11-28 02:40:00,
2013-11-27 21:45:00,19.8,-10.4,29.44,WNW,288,4.0,6.3,25,0.00,,---,0.00,VWS V12.07,2013-11-28 02:45:00,
2013-11-27 21:50:00,19.6,-10.5,29.44,WNW,289,2.2,4.9,25,0.00,,---,0.00,VWS V12.07,2013-11-28 02:50:00,
2013-11-27 21:55:00,19.4,-10.7,29.44,WNW,299,0.0,2.2,25,0.00,,---,0.00,VWS V12.07,2013-11-28 02:55:00,
2013-11-27 22:00:00,19.4,-10.7,29.47,NNW,339,0.0,0.0,25,0.00,,---,0.00,VWS V12.07,2013-11-28 03:00:00,
2013-11-27 22:05:00,19.2,-10.8,29.47,NW,325,0.0,0.0,25,0.00,,---,0.00,VWS V12.07,2013-11-28 03:05:00,
2013-11-27 22:10:00,19.2,-10.8,29.47,WNW,286,0.0,0.0,25,0.00,,---,0.00,VWS V12.07,2013-11-28 03:10:00,
2013-11-27 22:15:00,19.2,-10.8,29.47,West,268,4.0,4.9,25,0.00,,---,0.00,VWS V12.07,2013-11-28 03:15:00,
2013-11-27 22:20:00,19.0,-11.0,29.47,West,267,4.0,4.0,25,0.00,,---,0.00,VWS V12.07,2013-11-28 03:20:00,
2013-11-27 22:25:00,18.9,-11.1,29.47,West,268,0.0,4.0,25,0.00,,---,0.00,VWS V12.07,2013-11-28 03:25:00,
2013-11-27 22:30:00,18.5,-11.4,29.47,West,268,0.0,0.0,25,0.00,,---,0.00,VWS V12.07,2013-11-28 03:30:00,
2013-11-27 22:35:00,18.1,-11.8,29.47,West,268,0.0,0.0,25,0.00,,---,0.00,VWS V12.07,2013-11-28 03:35:00,
2013-11-27 22:40:00,17.6,-11.4,29.47,West,268,0.0,0.0,26,0.00,,---,0.00,VWS V12.07,2013-11-28 03:40:00,
2013-11-27 22:45:00,17.6,-11.4,29.47,West,268,0.0,0.0,26,0.00,,---,0.00,VWS V12.07,2013-11-28 03:45:00,
2013-11-27 22:50:00,18.0,-11.9,29.47,West,265,2.7,3.6,25,0.00,,---,0.00,VWS V12.07,2013-11-28 03:50:00,
2013-11-27 22:55:00,18.1,-11.8,29.47,West,264,2.2,3.1,25,0.00,,---,0.00,VWS V12.07,2013-11-28 03:55:00,
2013-11-27 23:00:00,18.3,-11.6,29.47,WSW,256,2.7,3.6,25,0.00,,---,0.00,VWS V12.07,2013-11-28 04:00:00,
2013-11-27 23:05:00,18.5,-11.4,29.47,WSW,256,2.7,4.0,25,0.00,,---,0.00,VWS V12.07,2013-11-28 04:05:00,
2013-11-27 23:10:00,18.7,-11.3,29.47,West,261,4.9,6.3,25,0.00,,---,0.00,VWS V12.07,2013-11-28 04:10:00,
2013-11-27 23:15:00,19.0,-11.0,29.47,WSW,253,4.0,5.8,25,0.00,,---,0.00,VWS V12.07,2013-11-28 04:15:00,
2013-11-27 23:20:00,19.0,-11.0,29.47,WSW,254,3.1,5.4,25,0.00,,---,0.00,VWS V12.07,2013-11-28 04:20:00,
2013-11-27 23:25:00,18.7,-11.3,29.47,West,262,4.0,4.0,25,0.00,,---,0.00,VWS V12.07,2013-11-28 04:25:00,
2013-11-27 23:30:00,18.7,-11.3,29.47,WSW,257,3.1,3.1,25,0.00,,---,0.00,VWS V12.07,2013-11-28 04:30:00,
2013-11-27 23:35:00,18.9,-11.1,29.47,WSW,253,5.4,5.8,25,0.00,,---,0.00,VWS V12.07,2013-11-28 04:35:00,
2013-11-27 23:40:00,19.0,-11.0,29.47,West,263,3.1,5.4,25,0.00,,---,0.00,VWS V12.07,2013-11-28 04:40:00,
2013-11-27 23:45:00,18.5,-11.4,29.47,West,281,3.1,4.0,25,0.00,,---,0.00,VWS V12.07,2013-11-28 04:45:00,
2013-11-27 23:50:00,18.1,-11.8,29.47,West,276,0.0,0.0,25,0.00,,---,0.00,VWS V12.07,2013-11-28 04:50:00,
2013-11-27 23:55:00,18.0,-11.9,29.47,West,276,0.0,0.0,25,0.00,,---,0.00,VWS V12.07,2013-11-28 04:55:00,